createdAt,value
2022-09-15T00:01:22.497Z,100.00
2022-09-15T00:03:53.314Z,100.00
2022-09-15T00:06:26.096Z,100.00
2022-09-15T00:08:56.636Z,100.00
2022-09-15T00:11:29.573Z,100.00
2022-09-15T00:14:02.593Z,100.00
2022-09-15T00:16:34.888Z,100.00
2022-09-15T00:19:06.729Z,100.00
2022-09-15T00:21:43.320Z,100.00
2022-09-15T00:24:13.758Z,100.00
2022-09-15T00:26:44.866Z,100.00
2022-09-15T00:29:15.357Z,100.00
2022-09-15T00:31:45.670Z,100.00
2022-09-15T00:34:17.216Z,100.00
2022-09-15T00:36:50.247Z,100.00
2022-09-15T00:39:20.654Z,100.00
2022-09-15T00:41:51.001Z,100.00
2022-09-15T00:44:55.148Z,100.00
2022-09-15T00:47:31.695Z,100.00
2022-09-15T00:50:06.040Z,100.00
2022-09-15T00:52:47.470Z,100.00
2022-09-15T00:55:24.367Z,100.00
2022-09-15T00:57:58.992Z,100.00
2022-09-15T01:00:31.813Z,100.00
2022-09-15T01:03:03.647Z,100.00
2022-09-15T01:05:38.246Z,100.00
2022-09-15T01:08:14.581Z,100.00
2022-09-15T01:10:45.057Z,100.00
2022-09-15T01:13:17.320Z,100.00
2022-09-15T01:15:57.853Z,100.00
2022-09-15T01:18:35.361Z,100.00
2022-09-15T01:21:18.276Z,100.00
2022-09-15T01:24:21.803Z,100.00
2022-09-15T01:27:41.160Z,100.00
2022-09-15T01:30:17.455Z,100.00
2022-09-15T01:33:06.768Z,100.00
2022-09-15T01:35:52.024Z,100.00
2022-09-15T01:38:32.140Z,100.00
2022-09-15T01:41:08.362Z,100.00
2022-09-15T01:43:43.937Z,100.00
2022-09-15T01:46:20.358Z,100.00
2022-09-15T01:48:52.665Z,100.00
2022-09-15T01:51:24.368Z,100.00
2022-09-15T01:53:56.644Z,100.00
2022-09-15T01:56:27.123Z,100.00
2022-09-15T01:58:57.400Z,100.00
2022-09-15T02:01:40.756Z,100.00
2022-09-15T02:04:18.154Z,100.00
2022-09-15T02:06:56.341Z,100.00
2022-09-15T02:09:32.636Z,100.00
2022-09-15T02:12:11.150Z,100.00
2022-09-15T02:14:56.140Z,100.00
2022-09-15T02:17:35.572Z,100.00
2022-09-15T02:20:16.279Z,100.00
2022-09-15T02:22:53.361Z,100.00
2022-09-15T02:25:28.148Z,100.00
2022-09-15T02:28:03.920Z,100.00
2022-09-15T02:30:35.965Z,100.00
2022-09-15T02:33:12.412Z,100.00
2022-09-15T02:35:43.439Z,100.00
2022-09-15T02:38:15.126Z,100.00
2022-09-15T02:40:47.856Z,100.00
2022-09-15T02:43:19.529Z,100.00
2022-09-15T02:45:50.096Z,100.00
2022-09-15T02:48:23.160Z,100.00
2022-09-15T02:50:53.282Z,100.00
2022-09-15T02:53:23.302Z,100.00
2022-09-15T02:55:53.362Z,100.00
2022-09-15T02:58:23.981Z,100.00
2022-09-15T03:00:55.946Z,100.00
2022-09-15T03:03:28.695Z,100.00
2022-09-15T03:06:16.505Z,100.00
2022-09-15T03:08:50.879Z,100.00
2022-09-15T03:11:22.463Z,100.00
2022-09-15T03:13:56.565Z,100.00
2022-09-15T03:16:27.309Z,100.00
2022-09-15T03:19:02.186Z,100.00
2022-09-15T03:21:33.002Z,100.00
2022-09-15T03:24:03.185Z,100.00
2022-09-15T03:26:33.286Z,100.00
2022-09-15T03:29:03.396Z,100.00
2022-09-15T03:31:33.480Z,100.00
2022-09-15T03:34:06.451Z,100.00
2022-09-15T03:36:36.816Z,100.00
2022-09-15T03:39:07.043Z,100.00
2022-09-15T03:41:37.202Z,100.00
2022-09-15T03:44:07.745Z,100.00
2022-09-15T03:46:37.822Z,100.00
2022-09-15T03:49:10.495Z,100.00
2022-09-15T03:51:40.634Z,100.00
2022-09-15T03:54:10.816Z,100.00
2022-09-15T03:56:41.401Z,100.00
2022-09-15T03:59:11.899Z,100.00
2022-09-15T04:01:42.030Z,100.00
2022-09-15T04:04:14.823Z,100.00
2022-09-15T04:06:45.099Z,100.00
2022-09-15T04:09:15.357Z,100.00
2022-09-15T04:11:45.537Z,100.00
2022-09-15T04:14:19.172Z,100.00
2022-09-15T04:16:49.230Z,100.00
2022-09-15T04:19:21.863Z,100.00
2022-09-15T04:21:51.946Z,100.00
2022-09-15T04:24:22.051Z,100.00
2022-09-15T04:26:52.203Z,100.00
2022-09-15T04:29:23.168Z,100.00
2022-09-15T04:31:54.091Z,100.00
2022-09-15T04:34:27.290Z,100.00
2022-09-15T04:36:57.409Z,100.00
2022-09-15T04:39:27.477Z,100.00
2022-09-15T04:41:57.953Z,100.00
2022-09-15T04:44:28.031Z,100.00
2022-09-15T04:46:58.242Z,100.00
2022-09-15T04:49:31.879Z,100.00
2022-09-15T04:52:02.022Z,100.00
2022-09-15T04:54:32.105Z,100.00
2022-09-15T04:57:02.205Z,100.00
2022-09-15T04:59:32.400Z,100.00
2022-09-15T05:02:03.094Z,100.00
2022-09-15T05:04:35.868Z,100.00
2022-09-15T05:07:06.111Z,100.00
2022-09-15T05:09:36.336Z,100.00
2022-09-15T05:12:06.508Z,100.00
2022-09-15T05:14:36.583Z,100.00
2022-09-15T05:17:06.699Z,100.00
2022-09-15T05:19:39.442Z,100.00
2022-09-15T05:22:09.552Z,100.00
2022-09-15T05:24:39.819Z,100.00
2022-09-15T05:27:09.985Z,100.00
2022-09-15T05:29:40.159Z,100.00
2022-09-15T05:32:10.263Z,100.00
2022-09-15T05:34:43.099Z,100.00
2022-09-15T05:37:13.360Z,100.00
2022-09-15T05:39:43.387Z,100.00
2022-09-15T05:42:13.414Z,100.00
2022-09-15T05:44:43.483Z,100.00
2022-09-15T05:47:13.620Z,100.00
2022-09-15T05:49:46.382Z,100.00
2022-09-15T05:52:16.450Z,100.00
2022-09-15T05:54:46.486Z,100.00
2022-09-15T05:57:16.568Z,100.00
2022-09-15T05:59:46.617Z,100.00
2022-09-15T06:02:17.012Z,100.00
2022-09-15T06:04:49.859Z,100.00
2022-09-15T06:07:20.119Z,100.00
2022-09-15T06:09:50.432Z,100.00
2022-09-15T06:12:20.560Z,100.00
2022-09-15T06:14:51.197Z,100.00
2022-09-15T06:17:22.360Z,100.00
2022-09-15T06:19:55.205Z,100.00
2022-09-15T06:22:25.566Z,100.00
2022-09-15T06:24:55.868Z,100.00
2022-09-15T06:27:25.912Z,100.00
2022-09-15T06:29:56.413Z,100.00
2022-09-15T06:32:26.640Z,100.00
2022-09-15T06:34:59.949Z,100.00
2022-09-15T06:37:30.250Z,100.00
2022-09-15T06:40:00.435Z,100.00
2022-09-15T06:42:30.697Z,100.00
2022-09-15T06:45:01.371Z,100.00
2022-09-15T06:47:34.160Z,100.00
2022-09-15T06:50:07.604Z,100.00
2022-09-15T06:52:37.684Z,100.00
2022-09-15T06:55:08.467Z,100.00
2022-09-15T06:57:38.635Z,100.00
2022-09-15T07:00:10.343Z,100.00
2022-09-15T07:02:40.509Z,100.00
2022-09-15T07:05:13.854Z,100.00
2022-09-15T07:07:44.121Z,100.00
2022-09-15T07:10:14.164Z,100.00
2022-09-15T07:12:44.465Z,100.00
2022-09-15T07:15:14.780Z,100.00
2022-09-15T07:17:44.938Z,100.00
2022-09-15T07:20:17.816Z,100.00
2022-09-15T07:22:47.869Z,100.00
2022-09-15T07:25:17.994Z,100.00
2022-09-15T07:27:48.203Z,100.00
2022-09-15T07:30:18.824Z,100.00
2022-09-15T07:32:49.059Z,100.00
2022-09-15T07:35:22.115Z,100.00
2022-09-15T07:37:52.189Z,100.00
2022-09-15T07:40:22.353Z,100.00
2022-09-15T07:42:52.608Z,100.00
2022-09-15T07:45:22.928Z,100.00
2022-09-15T07:47:53.022Z,100.00
2022-09-15T07:50:26.052Z,100.00
2022-09-15T07:52:58.531Z,100.00
2022-09-15T07:55:30.491Z,100.00
2022-09-15T07:58:01.432Z,100.00
2022-09-15T08:00:32.849Z,100.00
2022-09-15T08:03:03.025Z,100.00
2022-09-15T08:05:40.342Z,100.00
2022-09-15T08:08:12.510Z,100.00
2022-09-15T08:10:43.353Z,100.00
2022-09-15T08:13:13.464Z,100.00
2022-09-15T08:15:45.406Z,100.00
2022-09-15T08:18:15.597Z,100.00
2022-09-15T08:20:48.411Z,100.00
2022-09-15T08:23:18.596Z,100.00
2022-09-15T08:25:51.556Z,100.00
2022-09-15T08:28:21.796Z,100.00
2022-09-15T08:30:52.523Z,100.00
2022-09-15T08:33:23.398Z,100.00
2022-09-15T08:35:56.062Z,100.00
2022-09-15T08:38:26.307Z,100.00
2022-09-15T08:41:02.580Z,100.00
2022-09-15T08:43:39.453Z,98.59
2022-09-15T08:46:14.793Z,99.65
2022-09-15T08:48:51.621Z,97.72
2022-09-15T08:51:32.387Z,99.39
2022-09-15T08:54:06.802Z,99.71
2022-09-15T08:56:38.637Z,98.27
2022-09-15T08:59:08.944Z,98.04
2022-09-15T09:01:52.134Z,100.00
2022-09-15T09:04:36.173Z,98.99
2022-09-15T09:07:21.518Z,99.64
2022-09-15T09:09:59.397Z,99.35
2022-09-15T09:13:03.615Z,100.00
2022-09-15T09:15:45.289Z,100.00
2022-09-15T09:18:47.194Z,99.89
2022-09-15T09:21:26.776Z,100.00
2022-09-15T09:24:07.696Z,97.16
2022-09-15T09:26:40.284Z,95.95
2022-09-15T09:29:18.850Z,96.83
2022-09-15T09:31:51.959Z,96.84
2022-09-15T09:34:30.927Z,97.55
2022-09-15T09:37:03.908Z,99.44
2022-09-15T09:39:37.405Z,97.42
2022-09-15T09:42:09.540Z,95.62
2022-09-15T09:44:39.920Z,96.92
2022-09-15T09:47:10.333Z,96.79
2022-09-15T09:49:46.598Z,96.57
2022-09-15T09:52:34.424Z,96.46
2022-09-15T09:55:24.259Z,93.90
2022-09-15T09:57:54.918Z,93.44
2022-09-15T10:00:36.237Z,94.25
2022-09-15T10:03:14.464Z,93.22
2022-09-15T10:05:45.338Z,93.42
2022-09-15T10:08:21.132Z,92.80
2022-09-15T10:11:00.446Z,91.62
2022-09-15T10:13:31.106Z,90.69
2022-09-15T10:16:04.430Z,89.32
2022-09-15T10:18:37.597Z,89.79
2022-09-15T10:21:08.724Z,87.54
2022-09-15T10:23:39.771Z,89.16
2022-09-15T10:26:34.318Z,86.49
2022-09-15T10:29:16.169Z,85.07
2022-09-15T10:31:47.300Z,85.56
2022-09-15T10:34:30.611Z,83.14
2022-09-15T10:37:10.278Z,82.82
2022-09-15T10:39:53.688Z,83.30
2022-09-15T10:42:40.119Z,82.60
2022-09-15T10:45:28.093Z,84.10
2022-09-15T10:48:14.269Z,82.93
2022-09-15T10:50:55.091Z,82.90
2022-09-15T10:53:53.630Z,82.13
2022-09-15T10:56:32.840Z,82.56
2022-09-15T10:59:37.616Z,80.98
2022-09-15T11:02:40.536Z,82.12
2022-09-15T11:05:30.621Z,81.39
2022-09-15T11:08:15.906Z,79.45
2022-09-15T11:10:53.145Z,80.29
2022-09-15T11:13:30.497Z,78.64
2022-09-15T11:16:13.176Z,77.81
2022-09-15T11:19:07.576Z,79.06
2022-09-15T11:21:42.936Z,79.02
2022-09-15T11:24:44.018Z,80.60
2022-09-15T11:27:22.666Z,81.57
2022-09-15T11:30:05.438Z,81.71
2022-09-15T11:32:43.569Z,83.21
2022-09-15T11:35:44.264Z,79.95
2022-09-15T11:38:34.829Z,80.05
2022-09-15T11:41:17.239Z,79.80
2022-09-15T11:43:57.452Z,81.82
2022-09-15T11:46:35.507Z,78.29
2022-09-15T11:49:12.777Z,79.96
2022-09-15T11:51:50.996Z,78.69
2022-09-15T11:54:31.496Z,80.38
2022-09-15T11:57:03.273Z,81.25
2022-09-15T11:59:43.260Z,81.65
2022-09-15T12:02:23.530Z,79.39
2022-09-15T12:05:10.459Z,79.70
2022-09-15T12:07:48.258Z,78.78
2022-09-15T12:10:23.839Z,80.12
2022-09-15T12:12:56.742Z,79.96
2022-09-15T12:15:30.755Z,81.15
2022-09-15T12:18:34.442Z,79.22
2022-09-15T12:21:12.186Z,78.80
2022-09-15T12:23:47.792Z,79.25
2022-09-15T12:26:21.042Z,79.93
2022-09-15T12:29:02.421Z,80.16
2022-09-15T12:31:43.131Z,81.59
2022-09-15T12:34:38.605Z,80.49
2022-09-15T12:37:16.704Z,81.51
2022-09-15T12:39:49.502Z,82.03
2022-09-15T12:42:25.770Z,80.11
2022-09-15T12:45:00.209Z,81.50
2022-09-15T12:47:35.501Z,81.01
2022-09-15T12:50:12.101Z,82.39
2022-09-15T12:52:52.447Z,80.17
2022-09-15T12:55:27.470Z,81.89
2022-09-15T12:58:00.943Z,81.41
2022-09-15T13:01:06.811Z,81.41
2022-09-15T13:04:09.649Z,80.63
2022-09-15T13:06:40.864Z,81.33
2022-09-15T13:09:31.499Z,82.29
2022-09-15T13:12:06.729Z,81.06
2022-09-15T13:14:43.452Z,82.29
2022-09-15T13:17:19.501Z,81.49
2022-09-15T13:19:53.371Z,82.78
2022-09-15T13:22:30.474Z,82.83
2022-09-15T13:25:13.415Z,81.32
2022-09-15T13:27:48.217Z,82.37
2022-09-15T13:30:33.674Z,83.66
2022-09-15T13:33:16.540Z,84.30
2022-09-15T13:36:03.987Z,84.74
2022-09-15T13:39:05.871Z,86.31
2022-09-15T13:42:23.769Z,87.67
2022-09-15T13:45:29.589Z,88.02
2022-09-15T13:48:56.221Z,88.48
2022-09-15T13:51:30.855Z,88.92
2022-09-15T13:54:03.623Z,89.88
2022-09-15T13:56:41.877Z,88.14
2022-09-15T13:59:24.489Z,88.07
2022-09-15T14:01:58.169Z,88.24
2022-09-15T14:04:32.083Z,88.86
2022-09-15T14:07:04.250Z,88.61
2022-09-15T14:09:39.202Z,88.27
2022-09-15T14:12:15.663Z,87.99
2022-09-15T14:14:53.931Z,86.88
2022-09-15T14:17:26.940Z,85.10
2022-09-15T14:19:59.180Z,86.89
2022-09-15T14:22:31.604Z,86.90
2022-09-15T14:25:03.870Z,83.96
2022-09-15T14:27:36.880Z,85.89
2022-09-15T14:30:20.196Z,85.29
2022-09-15T14:32:52.912Z,86.77
2022-09-15T14:35:26.276Z,87.80
2022-09-15T14:38:00.108Z,89.44
2022-09-15T14:40:33.312Z,91.51
2022-09-15T14:43:03.392Z,91.17
2022-09-15T14:45:56.757Z,91.55
2022-09-15T14:48:30.900Z,93.49
2022-09-15T14:51:05.743Z,94.05
2022-09-15T14:53:39.760Z,94.99
2022-09-15T14:56:14.979Z,95.43
2022-09-15T14:58:48.660Z,99.02
2022-09-15T15:01:26.460Z,100.00
2022-09-15T15:04:02.469Z,100.00
2022-09-15T15:06:38.673Z,100.00
2022-09-15T15:09:13.438Z,100.00
2022-09-15T15:11:45.049Z,100.00
2022-09-15T15:14:16.683Z,100.00
2022-09-15T15:17:00.920Z,100.00
2022-09-15T15:19:39.950Z,100.00
2022-09-15T15:22:17.562Z,100.00
2022-09-15T15:24:50.489Z,100.00
2022-09-15T15:27:42.556Z,100.00
2022-09-15T15:30:49.870Z,100.00
2022-09-15T15:33:28.151Z,100.00
2022-09-15T15:36:09.396Z,100.00
2022-09-15T15:38:47.224Z,100.00
2022-09-15T15:41:24.293Z,100.00
2022-09-15T15:44:08.252Z,100.00
2022-09-15T15:46:53.343Z,100.00
2022-09-15T15:49:30.288Z,100.00
2022-09-15T15:52:01.862Z,100.00
2022-09-15T15:54:32.400Z,100.00
2022-09-15T15:57:23.753Z,100.00
2022-09-15T15:59:57.270Z,100.00
2022-09-15T16:02:28.496Z,100.00
2022-09-15T16:05:01.171Z,100.00
2022-09-15T16:07:33.391Z,100.00
2022-09-15T16:10:05.487Z,100.00
2022-09-15T16:12:35.672Z,100.00
2022-09-15T16:15:09.540Z,100.00
2022-09-15T16:17:44.360Z,100.00
2022-09-15T16:20:20.356Z,100.00
2022-09-15T16:22:50.929Z,100.00
2022-09-15T16:25:30.901Z,100.00
2022-09-15T16:28:01.009Z,100.00
2022-09-15T16:30:31.490Z,100.00
2022-09-15T16:33:02.289Z,100.00
2022-09-15T16:35:43.192Z,100.00
2022-09-15T16:38:13.372Z,100.00
2022-09-15T16:40:43.833Z,100.00
2022-09-15T16:43:16.708Z,100.00
2022-09-15T16:45:48.214Z,100.00
2022-09-15T16:48:18.894Z,100.00
2022-09-15T16:53:43.981Z,100.00
2022-09-15T16:56:15.574Z,100.00
2022-09-15T16:58:46.398Z,100.00
2022-09-15T17:01:20.609Z,100.00
2022-09-15T17:03:51.048Z,100.00
2022-09-15T17:06:24.099Z,100.00
2022-09-15T17:08:54.428Z,100.00
2022-09-15T17:11:25.631Z,100.00
2022-09-15T17:13:55.880Z,100.00
2022-09-15T17:16:26.324Z,100.00
2022-09-15T17:18:56.530Z,100.00
2022-09-15T17:21:29.623Z,100.00
2022-09-15T17:23:59.817Z,100.00
2022-09-15T17:26:31.619Z,100.00
2022-09-15T17:29:01.971Z,100.00
2022-09-15T17:31:32.709Z,100.00
2022-09-15T17:34:03.491Z,100.00
2022-09-15T17:36:37.847Z,100.00
2022-09-15T17:39:08.045Z,100.00
2022-09-15T17:41:38.843Z,100.00
2022-09-15T17:44:13.905Z,100.00
2022-09-15T17:46:44.882Z,100.00
2022-09-15T17:49:18.159Z,100.00
2022-09-15T17:51:51.459Z,100.00
2022-09-15T17:54:21.717Z,100.00
2022-09-15T17:56:52.112Z,100.00
2022-09-15T17:59:22.487Z,100.00
2022-09-15T18:01:53.221Z,100.00
2022-09-15T18:04:23.868Z,100.00
2022-09-15T18:06:57.244Z,100.00
2022-09-15T18:09:27.302Z,100.00
2022-09-15T18:11:58.152Z,100.00
2022-09-15T18:14:29.087Z,100.00
2022-09-15T18:16:59.656Z,100.00
2022-09-15T18:19:31.753Z,100.00
2022-09-15T18:22:09.777Z,100.00
2022-09-15T18:24:40.884Z,100.00
2022-09-15T18:27:11.683Z,100.00
2022-09-15T18:29:42.046Z,100.00
2022-09-15T18:32:12.120Z,100.00
2022-09-15T18:34:42.186Z,100.00
2022-09-15T18:37:15.112Z,100.00
2022-09-15T18:39:45.179Z,100.00
2022-09-15T18:42:15.376Z,100.00
2022-09-15T18:44:45.768Z,100.00
2022-09-15T18:47:16.112Z,100.00
2022-09-15T18:49:46.530Z,100.00
2022-09-15T18:52:19.253Z,100.00
2022-09-15T18:54:49.629Z,100.00
2022-09-15T18:57:19.731Z,100.00
2022-09-15T18:59:49.957Z,100.00
2022-09-15T19:02:20.174Z,100.00
2022-09-15T19:04:50.404Z,100.00
2022-09-15T19:07:28.202Z,100.00
2022-09-15T19:09:58.639Z,100.00
2022-09-15T19:12:28.761Z,100.00
2022-09-15T19:14:58.934Z,100.00
2022-09-15T19:17:29.203Z,100.00
2022-09-15T19:20:00.441Z,100.00
2022-09-15T19:22:33.357Z,100.00
2022-09-15T19:25:03.418Z,100.00
2022-09-15T19:27:33.569Z,100.00
2022-09-15T19:30:06.745Z,100.00
2022-09-15T19:32:36.866Z,100.00
2022-09-15T19:35:07.394Z,100.00
2022-09-15T19:37:44.080Z,100.00
2022-09-15T19:40:16.969Z,100.00
2022-09-15T19:42:48.251Z,100.00
2022-09-15T19:45:19.399Z,100.00
2022-09-15T19:47:49.599Z,100.00
2022-09-15T19:50:19.816Z,100.00
2022-09-15T19:52:54.291Z,100.00
2022-09-15T19:55:28.928Z,100.00
2022-09-15T19:57:59.047Z,100.00
2022-09-15T20:00:31.319Z,100.00
2022-09-15T20:03:01.446Z,100.00
2022-09-15T20:05:31.545Z,100.00
2022-09-15T20:08:04.410Z,100.00
2022-09-15T20:10:34.450Z,100.00
2022-09-15T20:13:04.529Z,100.00
2022-09-15T20:15:34.932Z,100.00
2022-09-15T20:18:05.450Z,100.00
2022-09-15T20:20:36.159Z,100.00
2022-09-15T20:23:08.827Z,100.00
2022-09-15T20:25:39.140Z,100.00
2022-09-15T20:28:09.215Z,100.00
2022-09-15T20:30:39.883Z,100.00
2022-09-15T20:33:10.072Z,100.00
2022-09-15T20:35:40.527Z,100.00
2022-09-15T20:38:13.224Z,100.00
2022-09-15T20:40:43.448Z,100.00
2022-09-15T20:43:13.530Z,100.00
2022-09-15T20:45:43.973Z,100.00
2022-09-15T20:48:14.149Z,100.00
2022-09-15T20:50:44.321Z,100.00
2022-09-15T20:53:17.215Z,100.00
2022-09-15T20:55:52.702Z,100.00
2022-09-15T20:58:23.045Z,100.00
2022-09-15T21:00:53.538Z,100.00
2022-09-15T21:03:25.838Z,100.00
2022-09-15T21:06:02.748Z,100.00
2022-09-15T21:08:35.909Z,100.00
2022-09-15T21:11:07.239Z,100.00
2022-09-15T21:13:39.038Z,100.00
2022-09-15T21:16:11.862Z,100.00
2022-09-15T21:18:42.959Z,100.00
2022-09-15T21:21:15.093Z,100.00
2022-09-15T21:23:49.405Z,100.00
2022-09-15T21:26:21.154Z,100.00
2022-09-15T21:28:51.455Z,100.00
2022-09-15T21:31:26.309Z,100.00
2022-09-15T21:33:57.192Z,100.00
2022-09-15T21:36:29.877Z,100.00
2022-09-15T21:39:02.976Z,100.00
2022-09-15T21:41:33.284Z,100.00
2022-09-15T21:44:03.842Z,100.00
2022-09-15T21:46:34.467Z,100.00
2022-09-15T21:49:04.790Z,100.00
2022-09-15T21:51:35.095Z,100.00
2022-09-15T21:54:07.945Z,100.00
2022-09-15T21:56:38.022Z,100.00
2022-09-15T21:59:09.164Z,100.00
2022-09-15T22:01:39.908Z,100.00
2022-09-15T22:04:11.692Z,100.00
2022-09-15T22:06:43.906Z,100.00
2022-09-15T22:09:20.772Z,100.00
2022-09-15T22:11:51.374Z,100.00
2022-09-15T22:14:21.603Z,100.00
2022-09-15T22:16:52.038Z,100.00
2022-09-15T22:19:22.512Z,100.00
2022-09-15T22:21:52.763Z,100.00
2022-09-15T22:24:25.439Z,100.00
2022-09-15T22:26:55.509Z,100.00
2022-09-15T22:29:26.179Z,100.00
2022-09-15T22:31:56.266Z,100.00
2022-09-15T22:34:26.382Z,100.00
2022-09-15T22:36:56.444Z,100.00
2022-09-15T22:39:50.281Z,100.00
2022-09-15T22:42:19.402Z,100.00
2022-09-15T22:44:49.946Z,100.00
2022-09-15T22:47:20.033Z,100.00
2022-09-15T22:49:50.103Z,100.00
2022-09-15T22:52:21.295Z,100.00
2022-09-15T22:54:53.950Z,100.00
2022-09-15T22:57:25.213Z,100.00
2022-09-15T22:59:55.292Z,100.00
2022-09-15T23:02:25.566Z,100.00
2022-09-15T23:04:55.784Z,100.00
2022-09-15T23:07:26.112Z,100.00
2022-09-15T23:09:58.894Z,100.00
2022-09-15T23:12:29.117Z,100.00
2022-09-15T23:15:03.988Z,100.00
2022-09-15T23:17:34.363Z,100.00
2022-09-15T23:20:05.083Z,100.00
2022-09-15T23:22:35.177Z,100.00
2022-09-15T23:25:08.571Z,100.00
2022-09-15T23:27:38.662Z,100.00
2022-09-15T23:30:09.679Z,100.00
2022-09-15T23:32:39.916Z,100.00
2022-09-15T23:35:11.269Z,100.00
2022-09-15T23:37:41.476Z,100.00
2022-09-15T23:40:14.920Z,100.00
2022-09-15T23:42:44.978Z,100.00
2022-09-15T23:45:15.975Z,100.00
2022-09-15T23:47:46.101Z,100.00
2022-09-15T23:50:16.297Z,100.00
2022-09-15T23:52:46.681Z,100.00
2022-09-15T23:55:19.615Z,100.00
2022-09-15T23:57:49.709Z,100.00
